Everett, WA

10:45 PM PDT on September 01, 2014 (GMT -0700)
harborview, everett, wa | Change Station
CLOSE
Current Station
Personal Weather Station
Location: Everett, WA
Elevation: 85 ft
Nearby Weather Stations

Elev 85 ft 47.96 °N, 122.25 °W | Updated 2 minutes ago

Overcast
Overcast
61.5 °F
Feels Like 61.5 °F
N
5.0
Wind Variable Wind from NW
Gusts 7.0 mph

Today
High -- | Low -- °F
--% Chance of Precip.
Yesterday
High -- | Low -- °F
Precip. -- in
6:26 AM 7:49 PM
Waxing Crescent, 48% visible
Pressure 30.01 in
Visibility 10.0 miles
Clouds Mostly Cloudy 4600 ft
Mostly Cloudy 5500 ft
Overcast 7500 ft
Dew Point 59 °F
Humidity 90%
Rainfall 0.00 in
Snow Depth Not available.
UV 0 out of 12
Pollen 2.80 out of 12
PM2.5 Good
Flu Activity Not available.
METAR KPAE 020453Z AUTO 35008KT 10SM BKN046 BKN055 OVC075 16/13 A3001 RMK AO2 SLP161 T01560128

More Conditions Fewer Conditions

Pressure 30.01 in
Visibility 10.0 miles
Clouds Mostly Cloudy 4600 ft
Mostly Cloudy 5500 ft
Overcast 7500 ft
Dew Point 59 °F
Humidity 90%
Rainfall 0.00 in
Snow Depth Not available.
UV 0 out of 12
Pollen 2.80 out of 12
PM2.5 Good
Flu Activity Not available.
METAR KPAE 020453Z AUTO 35008KT 10SM BKN046 BKN055 OVC075 16/13 A3001 RMK AO2 SLP161 T01560128

More Conditions Fewer Conditions

10-Day Weather Forecast

Almanac

Astronomy

Sep. 01, 2014 Rise Set
Actual Time 6:26 AM PDT 7:49 PM PDT
Civil Twilight 5:54 AM PDT 8:21 PM PDT
Nautical Twilight 5:15 AM PDT 9:00 PM PDT
Astronomical Twilight 4:33 AM PDT 9:42 PM PDT
Moon 1:48 PM PDT (9/1) 11:24 PM PDT (9/1)
Length of Visible Light 14h 26m
Length of Day
13h 22m
Tomorrow will be 3m 22s shorter.
Waxing Crescent, 48% of the Moon is Illuminated
Sep 2
Waxing Crescent
Sep 2
First Quarter
Sep 8
Full
Sep 15
Last Quarter
Sep 24
New

Yesterday's Extremes

State Highs State Lows

Community

WunderPhotos

Upload Photos

1,749,579 photos uploaded!

WunderBlogs® & News

Nearby

Air Quality

  Air Quality AQ Index Pollutant
Yesterday Good
PM2.5
Current Good
PM2.5
Monday Good
OZONE
Monday Good
PM2.5
Tuesday Good
OZONE
Tuesday Good
PM2.5
Wednesday Good
OZONE
Wednesday Good
PM2.5

Snow Depth

Station Depth Elevation
Alpine Meadows 0 in 3500 ft
Skookum Creek 0 in 3920 ft
Mount Crag 0 in 4050 ft
Dungeness 0 in 4100 ft
Elbow Lake 0 in 3200 ft

Earthquake Activity

City Distance Mag. Time & Date
No recent earthquake activity has been reported nearby.
Minimum magnitude displayed is 2.5.

Coastal Water Temperatures

Place Temperature
Port Townsend, WA 53.1 °F
Seattle, WA 55.9 °F
Friday Harbor, WA 53.1 °F
Tacoma, WA 55.0 °F

Nearby Weather Stations